sensor_id;sensor_type;location;lat;lon;timestamp;P1;durP1;ratioP1;P2;durP2;ratioP2
17796;SDS011;55596;53.554;9.916;2023-07-08T00:00:39;7.70;;;3.60;;
17796;SDS011;55596;53.554;9.916;2023-07-08T00:03:08;6.20;;;3.67;;
17796;SDS011;55596;53.554;9.916;2023-07-08T00:05:35;5.23;;;3.60;;
17796;SDS011;55596;53.554;9.916;2023-07-08T00:08:03;8.73;;;4.23;;
17796;SDS011;55596;53.554;9.916;2023-07-08T00:10:30;9.13;;;3.63;;
17796;SDS011;55596;53.554;9.916;2023-07-08T00:12:58;5.17;;;3.83;;
17796;SDS011;55596;53.554;9.916;2023-07-08T00:15:26;5.20;;;3.40;;
17796;SDS011;55596;53.554;9.916;2023-07-08T00:17:54;6.13;;;4.03;;
17796;SDS011;55596;53.554;9.916;2023-07-08T00:20:28;5.93;;;3.90;;
17796;SDS011;55596;53.554;9.916;2023-07-08T00:22:58;7.97;;;3.87;;
17796;SDS011;55596;53.554;9.916;2023-07-08T00:25:26;5.37;;;3.77;;
17796;SDS011;55596;53.554;9.916;2023-07-08T00:27:58;8.80;;;3.77;;
17796;SDS011;55596;53.554;9.916;2023-07-08T00:30:26;6.67;;;4.13;;
17796;SDS011;55596;53.554;9.916;2023-07-08T00:32:56;6.77;;;3.67;;
17796;SDS011;55596;53.554;9.916;2023-07-08T00:35:26;7.57;;;4.00;;
17796;SDS011;55596;53.554;9.916;2023-07-08T00:37:54;6.73;;;4.10;;
17796;SDS011;55596;53.554;9.916;2023-07-08T00:40:27;8.73;;;4.30;;
17796;SDS011;55596;53.554;9.916;2023-07-08T00:42:55;6.17;;;4.03;;
17796;SDS011;55596;53.554;9.916;2023-07-08T00:45:36;4.93;;;3.77;;
17796;SDS011;55596;53.554;9.916;2023-07-08T00:48:18;6.07;;;4.00;;
17796;SDS011;55596;53.554;9.916;2023-07-08T00:50:48;6.63;;;4.10;;
17796;SDS011;55596;53.554;9.916;2023-07-08T00:53:22;7.13;;;4.23;;
17796;SDS011;55596;53.554;9.916;2023-07-08T00:55:55;7.03;;;4.43;;
17796;SDS011;55596;53.554;9.916;2023-07-08T00:58:25;6.80;;;4.40;;
17796;SDS011;55596;53.554;9.916;2023-07-08T01:00:53;7.63;;;4.60;;
17796;SDS011;55596;53.554;9.916;2023-07-08T01:03:23;9.67;;;4.87;;
17796;SDS011;55596;53.554;9.916;2023-07-08T01:05:56;5.97;;;4.63;;
17796;SDS011;55596;53.554;9.916;2023-07-08T01:08:27;12.13;;;5.90;;
17796;SDS011;55596;53.554;9.916;2023-07-08T01:10:58;8.20;;;5.00;;
17796;SDS011;55596;53.554;9.916;2023-07-08T01:13:27;6.33;;;4.60;;
17796;SDS011;55596;53.554;9.916;2023-07-08T01:15:55;9.30;;;4.80;;
17796;SDS011;55596;53.554;9.916;2023-07-08T01:18:23;5.43;;;4.47;;
17796;SDS011;55596;53.554;9.916;2023-07-08T01:20:51;5.47;;;4.10;;
17796;SDS011;55596;53.554;9.916;2023-07-08T01:23:21;8.27;;;4.37;;
17796;SDS011;55596;53.554;9.916;2023-07-08T01:25:50;11.47;;;5.27;;
17796;SDS011;55596;53.554;9.916;2023-07-08T01:28:18;6.93;;;4.60;;
17796;SDS011;55596;53.554;9.916;2023-07-08T01:30:46;7.00;;;4.80;;
17796;SDS011;55596;53.554;9.916;2023-07-08T01:33:16;10.87;;;4.70;;
17796;SDS011;55596;53.554;9.916;2023-07-08T01:35:44;6.83;;;4.17;;
17796;SDS011;55596;53.554;9.916;2023-07-08T01:38:15;6.63;;;4.20;;
17796;SDS011;55596;53.554;9.916;2023-07-08T01:40:49;8.23;;;4.67;;
17796;SDS011;55596;53.554;9.916;2023-07-08T01:43:17;5.30;;;3.90;;
17796;SDS011;55596;53.554;9.916;2023-07-08T01:45:44;6.93;;;4.20;;
17796;SDS011;55596;53.554;9.916;2023-07-08T01:48:12;7.00;;;4.20;;
17796;SDS011;55596;53.554;9.916;2023-07-08T01:50:54;7.67;;;4.00;;
17796;SDS011;55596;53.554;9.916;2023-07-08T01:53:27;6.47;;;4.33;;
17796;SDS011;55596;53.554;9.916;2023-07-08T01:55:57;7.27;;;4.37;;
17796;SDS011;55596;53.554;9.916;2023-07-08T01:58:24;10.40;;;4.37;;
17796;SDS011;55596;53.554;9.916;2023-07-08T02:00:51;6.47;;;4.30;;
17796;SDS011;55596;53.554;9.916;2023-07-08T02:03:19;7.50;;;3.80;;
17796;SDS011;55596;53.554;9.916;2023-07-08T02:05:46;5.50;;;4.37;;
17796;SDS011;55596;53.554;9.916;2023-07-08T02:08:13;11.80;;;4.13;;
17796;SDS011;55596;53.554;9.916;2023-07-08T02:10:41;6.70;;;4.17;;
17796;SDS011;55596;53.554;9.916;2023-07-08T02:13:09;12.40;;;4.10;;
17796;SDS011;55596;53.554;9.916;2023-07-08T02:15:37;7.70;;;3.90;;
17796;SDS011;55596;53.554;9.916;2023-07-08T02:18:04;6.13;;;4.10;;
17796;SDS011;55596;53.554;9.916;2023-07-08T02:20:34;7.63;;;4.00;;
17796;SDS011;55596;53.554;9.916;2023-07-08T02:23:02;7.07;;;3.77;;
17796;SDS011;55596;53.554;9.916;2023-07-08T02:25:29;8.83;;;4.13;;
17796;SDS011;55596;53.554;9.916;2023-07-08T02:27:56;8.93;;;4.00;;
17796;SDS011;55596;53.554;9.916;2023-07-08T02:30:25;6.53;;;4.30;;
17796;SDS011;55596;53.554;9.916;2023-07-08T02:32:52;5.03;;;3.77;;
17796;SDS011;55596;53.554;9.916;2023-07-08T02:35:22;6.77;;;3.53;;
17796;SDS011;55596;53.554;9.916;2023-07-08T02:37:50;5.70;;;3.50;;
17796;SDS011;55596;53.554;9.916;2023-07-08T02:40:17;5.77;;;3.97;;
17796;SDS011;55596;53.554;9.916;2023-07-08T02:42:45;4.70;;;3.70;;
17796;SDS011;55596;53.554;9.916;2023-07-08T02:45:12;7.03;;;3.97;;
17796;SDS011;55596;53.554;9.916;2023-07-08T02:47:50;6.13;;;4.10;;
17796;SDS011;55596;53.554;9.916;2023-07-08T02:50:19;9.40;;;5.30;;
17796;SDS011;55596;53.554;9.916;2023-07-08T02:52:46;6.53;;;4.03;;
17796;SDS011;55596;53.554;9.916;2023-07-08T02:55:13;4.90;;;3.73;;
17796;SDS011;55596;53.554;9.916;2023-07-08T02:57:40;8.57;;;3.30;;
17796;SDS011;55596;53.554;9.916;2023-07-08T03:00:08;6.17;;;3.77;;
17796;SDS011;55596;53.554;9.916;2023-07-08T03:02:35;5.47;;;3.83;;
17796;SDS011;55596;53.554;9.916;2023-07-08T03:05:04;7.23;;;3.80;;
17796;SDS011;55596;53.554;9.916;2023-07-08T03:07:31;6.17;;;3.63;;
17796;SDS011;55596;53.554;9.916;2023-07-08T03:09:59;7.13;;;3.73;;
17796;SDS011;55596;53.554;9.916;2023-07-08T03:12:26;5.97;;;3.63;;
17796;SDS011;55596;53.554;9.916;2023-07-08T03:14:53;6.53;;;4.00;;
17796;SDS011;55596;53.554;9.916;2023-07-08T03:17:20;7.97;;;3.90;;
17796;SDS011;55596;53.554;9.916;2023-07-08T03:19:47;5.30;;;3.63;;
17796;SDS011;55596;53.554;9.916;2023-07-08T03:22:16;5.93;;;3.87;;
17796;SDS011;55596;53.554;9.916;2023-07-08T03:24:43;8.43;;;4.10;;
17796;SDS011;55596;53.554;9.916;2023-07-08T03:27:11;7.60;;;3.70;;
17796;SDS011;55596;53.554;9.916;2023-07-08T03:29:38;5.87;;;3.53;;
17796;SDS011;55596;53.554;9.916;2023-07-08T03:32:07;6.43;;;3.57;;
17796;SDS011;55596;53.554;9.916;2023-07-08T03:34:35;9.47;;;3.47;;
17796;SDS011;55596;53.554;9.916;2023-07-08T03:37:02;3.53;;;3.00;;
17796;SDS011;55596;53.554;9.916;2023-07-08T03:39:31;5.30;;;3.50;;
17796;SDS011;55596;53.554;9.916;2023-07-08T03:41:58;5.70;;;3.30;;
17796;SDS011;55596;53.554;9.916;2023-07-08T03:44:25;2.83;;;2.53;;
17796;SDS011;55596;53.554;9.916;2023-07-08T03:46:52;4.00;;;3.23;;
17796;SDS011;55596;53.554;9.916;2023-07-08T03:49:20;6.43;;;3.10;;
17796;SDS011;55596;53.554;9.916;2023-07-08T03:51:49;6.33;;;3.70;;
17796;SDS011;55596;53.554;9.916;2023-07-08T03:54:17;4.70;;;3.23;;
17796;SDS011;55596;53.554;9.916;2023-07-08T03:56:45;5.10;;;3.23;;
17796;SDS011;55596;53.554;9.916;2023-07-08T03:59:13;9.03;;;3.70;;
17796;SDS011;55596;53.554;9.916;2023-07-08T04:01:40;5.73;;;3.37;;
17796;SDS011;55596;53.554;9.916;2023-07-08T04:04:08;4.37;;;3.07;;
17796;SDS011;55596;53.554;9.916;2023-07-08T04:06:37;5.77;;;3.40;;
17796;SDS011;55596;53.554;9.916;2023-07-08T04:09:05;5.87;;;3.40;;
17796;SDS011;55596;53.554;9.916;2023-07-08T04:11:32;6.27;;;3.40;;
17796;SDS011;55596;53.554;9.916;2023-07-08T04:14:01;6.10;;;3.43;;
17796;SDS011;55596;53.554;9.916;2023-07-08T04:16:29;8.17;;;3.53;;
17796;SDS011;55596;53.554;9.916;2023-07-08T04:19:01;4.07;;;3.37;;
17796;SDS011;55596;53.554;9.916;2023-07-08T04:21:28;4.63;;;3.37;;
17796;SDS011;55596;53.554;9.916;2023-07-08T04:23:56;5.07;;;3.70;;
17796;SDS011;55596;53.554;9.916;2023-07-08T04:26:23;8.10;;;3.60;;
17796;SDS011;55596;53.554;9.916;2023-07-08T04:28:50;6.10;;;3.40;;
17796;SDS011;55596;53.554;9.916;2023-07-08T04:31:19;4.00;;;3.20;;
17796;SDS011;55596;53.554;9.916;2023-07-08T04:33:46;5.27;;;3.60;;
17796;SDS011;55596;53.554;9.916;2023-07-08T04:36:13;5.40;;;3.60;;
17796;SDS011;55596;53.554;9.916;2023-07-08T04:38:43;5.97;;;3.37;;
17796;SDS011;55596;53.554;9.916;2023-07-08T04:41:12;5.30;;;3.30;;
17796;SDS011;55596;53.554;9.916;2023-07-08T04:43:39;4.07;;;2.67;;
17796;SDS011;55596;53.554;9.916;2023-07-08T04:46:09;6.57;;;3.37;;
17796;SDS011;55596;53.554;9.916;2023-07-08T04:48:43;5.93;;;2.87;;
17796;SDS011;55596;53.554;9.916;2023-07-08T04:51:10;3.57;;;2.87;;
17796;SDS011;55596;53.554;9.916;2023-07-08T04:53:38;6.90;;;3.17;;
17796;SDS011;55596;53.554;9.916;2023-07-08T04:56:05;3.40;;;3.10;;
17796;SDS011;55596;53.554;9.916;2023-07-08T04:58:32;7.30;;;3.23;;
17796;SDS011;55596;53.554;9.916;2023-07-08T05:00:59;3.57;;;2.93;;
17796;SDS011;55596;53.554;9.916;2023-07-08T05:03:26;3.97;;;2.77;;
17796;SDS011;55596;53.554;9.916;2023-07-08T05:05:55;5.13;;;3.10;;
17796;SDS011;55596;53.554;9.916;2023-07-08T05:08:22;7.77;;;3.23;;
17796;SDS011;55596;53.554;9.916;2023-07-08T05:10:50;5.20;;;2.83;;
17796;SDS011;55596;53.554;9.916;2023-07-08T05:13:17;4.47;;;2.87;;
17796;SDS011;55596;53.554;9.916;2023-07-08T05:15:44;4.23;;;2.90;;
17796;SDS011;55596;53.554;9.916;2023-07-08T05:18:11;4.27;;;3.10;;
17796;SDS011;55596;53.554;9.916;2023-07-08T05:20:38;9.57;;;3.70;;
17796;SDS011;55596;53.554;9.916;2023-07-08T05:23:07;8.17;;;3.13;;
17796;SDS011;55596;53.554;9.916;2023-07-08T05:25:35;8.27;;;2.93;;
17796;SDS011;55596;53.554;9.916;2023-07-08T05:28:02;7.07;;;2.80;;
17796;SDS011;55596;53.554;9.916;2023-07-08T05:30:29;4.17;;;2.80;;
17796;SDS011;55596;53.554;9.916;2023-07-08T05:32:56;6.90;;;3.00;;
17796;SDS011;55596;53.554;9.916;2023-07-08T05:35:23;7.17;;;2.87;;
17796;SDS011;55596;53.554;9.916;2023-07-08T05:37:51;5.33;;;3.10;;
17796;SDS011;55596;53.554;9.916;2023-07-08T05:40:19;6.83;;;2.87;;
17796;SDS011;55596;53.554;9.916;2023-07-08T05:42:47;5.00;;;2.80;;
17796;SDS011;55596;53.554;9.916;2023-07-08T05:45:14;5.40;;;3.27;;
17796;SDS011;55596;53.554;9.916;2023-07-08T05:47:41;7.43;;;2.93;;
17796;SDS011;55596;53.554;9.916;2023-07-08T05:50:08;3.23;;;2.63;;
17796;SDS011;55596;53.554;9.916;2023-07-08T05:52:36;4.57;;;2.90;;
17796;SDS011;55596;53.554;9.916;2023-07-08T05:55:03;6.27;;;3.10;;
17796;SDS011;55596;53.554;9.916;2023-07-08T05:57:32;6.00;;;2.67;;
17796;SDS011;55596;53.554;9.916;2023-07-08T05:59:59;4.17;;;2.63;;
17796;SDS011;55596;53.554;9.916;2023-07-08T06:02:26;7.70;;;2.90;;
17796;SDS011;55596;53.554;9.916;2023-07-08T06:04:53;7.00;;;2.50;;
17796;SDS011;55596;53.554;9.916;2023-07-08T06:07:21;4.67;;;2.70;;
17796;SDS011;55596;53.554;9.916;2023-07-08T06:09:48;4.70;;;2.70;;
17796;SDS011;55596;53.554;9.916;2023-07-08T06:12:16;6.37;;;2.67;;
17796;SDS011;55596;53.554;9.916;2023-07-08T06:14:45;3.37;;;2.20;;
17796;SDS011;55596;53.554;9.916;2023-07-08T06:17:12;4.17;;;2.70;;
17796;SDS011;55596;53.554;9.916;2023-07-08T06:19:41;6.13;;;2.40;;
17796;SDS011;55596;53.554;9.916;2023-07-08T06:22:12;6.43;;;2.80;;
17796;SDS011;55596;53.554;9.916;2023-07-08T06:24:39;5.17;;;2.50;;
17796;SDS011;55596;53.554;9.916;2023-07-08T06:27:07;6.90;;;2.67;;
17796;SDS011;55596;53.554;9.916;2023-07-08T06:29:34;5.43;;;2.73;;
17796;SDS011;55596;53.554;9.916;2023-07-08T06:32:03;3.90;;;2.40;;
17796;SDS011;55596;53.554;9.916;2023-07-08T06:34:31;5.27;;;2.63;;
17796;SDS011;55596;53.554;9.916;2023-07-08T06:36:58;5.13;;;2.80;;
17796;SDS011;55596;53.554;9.916;2023-07-08T06:39:25;5.13;;;2.50;;
17796;SDS011;55596;53.554;9.916;2023-07-08T06:41:52;4.47;;;2.37;;
17796;SDS011;55596;53.554;9.916;2023-07-08T06:44:20;7.90;;;2.70;;
17796;SDS011;55596;53.554;9.916;2023-07-08T06:46:47;4.43;;;2.40;;
17796;SDS011;55596;53.554;9.916;2023-07-08T06:49:16;4.80;;;2.43;;
17796;SDS011;55596;53.554;9.916;2023-07-08T06:51:45;3.27;;;2.50;;
17796;SDS011;55596;53.554;9.916;2023-07-08T06:54:12;3.35;;;2.38;;
17796;SDS011;55596;53.554;9.916;2023-07-08T06:56:40;4.68;;;2.10;;
17796;SDS011;55596;53.554;9.916;2023-07-08T06:59:07;6.60;;;2.50;;
17796;SDS011;55596;53.554;9.916;2023-07-08T07:01:35;6.60;;;2.85;;
17796;SDS011;55596;53.554;9.916;2023-07-08T07:04:04;5.93;;;2.50;;
17796;SDS011;55596;53.554;9.916;2023-07-08T07:06:34;5.13;;;2.80;;
17796;SDS011;55596;53.554;9.916;2023-07-08T07:09:01;5.97;;;3.58;;
17796;SDS011;55596;53.554;9.916;2023-07-08T07:11:29;6.15;;;2.95;;
17796;SDS011;55596;53.554;9.916;2023-07-08T07:13:56;4.93;;;2.95;;
17796;SDS011;55596;53.554;9.916;2023-07-08T07:16:24;6.68;;;2.60;;
17796;SDS011;55596;53.554;9.916;2023-07-08T07:18:51;5.68;;;2.72;;
17796;SDS011;55596;53.554;9.916;2023-07-08T07:21:18;3.67;;;2.67;;
17796;SDS011;55596;53.554;9.916;2023-07-08T07:23:46;5.13;;;2.72;;
17796;SDS011;55596;53.554;9.916;2023-07-08T07:26:14;4.32;;;2.38;;
17796;SDS011;55596;53.554;9.916;2023-07-08T07:28:41;5.18;;;2.38;;
17796;SDS011;55596;53.554;9.916;2023-07-08T07:31:08;6.22;;;2.28;;
17796;SDS011;55596;53.554;9.916;2023-07-08T07:33:36;4.13;;;2.42;;
17796;SDS011;55596;53.554;9.916;2023-07-08T07:36:03;7.20;;;2.08;;
17796;SDS011;55596;53.554;9.916;2023-07-08T07:38:32;3.85;;;2.13;;
17796;SDS011;55596;53.554;9.916;2023-07-08T07:41:01;6.40;;;2.50;;
17796;SDS011;55596;53.554;9.916;2023-07-08T07:43:31;5.82;;;2.42;;
17796;SDS011;55596;53.554;9.916;2023-07-08T07:45:59;4.07;;;2.13;;
17796;SDS011;55596;53.554;9.916;2023-07-08T07:48:28;5.95;;;2.25;;
17796;SDS011;55596;53.554;9.916;2023-07-08T07:50:55;3.50;;;2.30;;
17796;SDS011;55596;53.554;9.916;2023-07-08T07:53:22;4.05;;;2.15;;
17796;SDS011;55596;53.554;9.916;2023-07-08T07:55:55;6.70;;;2.20;;
17796;SDS011;55596;53.554;9.916;2023-07-08T07:58:23;3.88;;;2.17;;
17796;SDS011;55596;53.554;9.916;2023-07-08T08:00:51;3.60;;;2.28;;
17796;SDS011;55596;53.554;9.916;2023-07-08T08:03:18;4.07;;;2.10;;
17796;SDS011;55596;53.554;9.916;2023-07-08T08:05:46;4.65;;;2.47;;
17796;SDS011;55596;53.554;9.916;2023-07-08T08:08:13;5.13;;;2.65;;
17796;SDS011;55596;53.554;9.916;2023-07-08T08:10:41;4.78;;;2.65;;
17796;SDS011;55596;53.554;9.916;2023-07-08T08:13:10;3.97;;;2.90;;
17796;SDS011;55596;53.554;9.916;2023-07-08T08:15:38;3.72;;;2.50;;
17796;SDS011;55596;53.554;9.916;2023-07-08T08:18:05;4.45;;;2.85;;
17796;SDS011;55596;53.554;9.916;2023-07-08T08:20:33;4.30;;;2.67;;
17796;SDS011;55596;53.554;9.916;2023-07-08T08:23:00;3.22;;;1.98;;
17796;SDS011;55596;53.554;9.916;2023-07-08T08:25:27;4.75;;;1.92;;
17796;SDS011;55596;53.554;9.916;2023-07-08T08:27:54;3.85;;;2.40;;
17796;SDS011;55596;53.554;9.916;2023-07-08T08:30:22;3.17;;;2.20;;
17796;SDS011;55596;53.554;9.916;2023-07-08T08:32:51;2.83;;;1.83;;
17796;SDS011;55596;53.554;9.916;2023-07-08T08:35:18;2.60;;;2.00;;
17796;SDS011;55596;53.554;9.916;2023-07-08T08:37:45;3.03;;;2.47;;
17796;SDS011;55596;53.554;9.916;2023-07-08T08:40:14;3.38;;;1.92;;
17796;SDS011;55596;53.554;9.916;2023-07-08T08:42:43;3.00;;;1.92;;
17796;SDS011;55596;53.554;9.916;2023-07-08T08:45:15;4.47;;;2.17;;
17796;SDS011;55596;53.554;9.916;2023-07-08T08:47:45;4.57;;;2.30;;
17796;SDS011;55596;53.554;9.916;2023-07-08T08:50:21;3.67;;;2.28;;
17796;SDS011;55596;53.554;9.916;2023-07-08T08:52:50;5.38;;;2.15;;
17796;SDS011;55596;53.554;9.916;2023-07-08T08:55:20;3.30;;;1.77;;
17796;SDS011;55596;53.554;9.916;2023-07-08T08:57:51;3.95;;;2.05;;
17796;SDS011;55596;53.554;9.916;2023-07-08T09:00:22;5.43;;;2.00;;
17796;SDS011;55596;53.554;9.916;2023-07-08T09:02:57;3.25;;;2.22;;
17796;SDS011;55596;53.554;9.916;2023-07-08T09:05:27;5.05;;;3.45;;
17796;SDS011;55596;53.554;9.916;2023-07-08T09:07:59;4.82;;;2.45;;
17796;SDS011;55596;53.554;9.916;2023-07-08T09:10:29;2.53;;;1.92;;
17796;SDS011;55596;53.554;9.916;2023-07-08T09:12:59;4.15;;;2.22;;
17796;SDS011;55596;53.554;9.916;2023-07-08T09:15:29;5.68;;;2.72;;
17796;SDS011;55596;53.554;9.916;2023-07-08T09:17:57;5.55;;;2.58;;
17796;SDS011;55596;53.554;9.916;2023-07-08T09:20:35;4.38;;;1.90;;
17796;SDS011;55596;53.554;9.916;2023-07-08T09:23:03;2.80;;;1.92;;
17796;SDS011;55596;53.554;9.916;2023-07-08T09:25:46;3.38;;;1.90;;
17796;SDS011;55596;53.554;9.916;2023-07-08T09:28:15;2.78;;;2.28;;
17796;SDS011;55596;53.554;9.916;2023-07-08T09:30:47;5.03;;;2.17;;
17796;SDS011;55596;53.554;9.916;2023-07-08T09:33:15;2.30;;;1.88;;
17796;SDS011;55596;53.554;9.916;2023-07-08T09:35:45;8.18;;;2.35;;
17796;SDS011;55596;53.554;9.916;2023-07-08T09:38:13;8.00;;;2.08;;
17796;SDS011;55596;53.554;9.916;2023-07-08T09:40:50;3.42;;;2.50;;
17796;SDS011;55596;53.554;9.916;2023-07-08T09:43:26;8.10;;;1.85;;
17796;SDS011;55596;53.554;9.916;2023-07-08T09:45:57;4.90;;;1.92;;
17796;SDS011;55596;53.554;9.916;2023-07-08T09:48:25;3.22;;;2.10;;
17796;SDS011;55596;53.554;9.916;2023-07-08T09:50:54;3.03;;;1.88;;
17796;SDS011;55596;53.554;9.916;2023-07-08T09:53:37;3.78;;;2.20;;
17796;SDS011;55596;53.554;9.916;2023-07-08T09:56:18;5.43;;;2.05;;
17796;SDS011;55596;53.554;9.916;2023-07-08T09:58:49;4.20;;;2.35;;
17796;SDS011;55596;53.554;9.916;2023-07-08T10:01:25;2.45;;;1.83;;
17796;SDS011;55596;53.554;9.916;2023-07-08T10:03:57;5.05;;;2.17;;
17796;SDS011;55596;53.554;9.916;2023-07-08T10:06:30;3.17;;;1.80;;
17796;SDS011;55596;53.554;9.916;2023-07-08T10:09:00;4.63;;;3.13;;
17796;SDS011;55596;53.554;9.916;2023-07-08T10:11:28;4.00;;;2.22;;
17796;SDS011;55596;53.554;9.916;2023-07-08T10:13:56;3.08;;;2.15;;
17796;SDS011;55596;53.554;9.916;2023-07-08T10:16:24;5.72;;;2.20;;
17796;SDS011;55596;53.554;9.916;2023-07-08T10:19:01;5.57;;;2.50;;
17796;SDS011;55596;53.554;9.916;2023-07-08T10:21:36;4.03;;;2.00;;
17796;SDS011;55596;53.554;9.916;2023-07-08T10:24:09;2.85;;;2.15;;
17796;SDS011;55596;53.554;9.916;2023-07-08T10:26:43;4.50;;;2.35;;
17796;SDS011;55596;53.554;9.916;2023-07-08T10:29:14;5.35;;;3.20;;
17796;SDS011;55596;53.554;9.916;2023-07-08T10:31:45;4.05;;;2.20;;
17796;SDS011;55596;53.554;9.916;2023-07-08T10:34:28;4.20;;;2.10;;
17796;SDS011;55596;53.554;9.916;2023-07-08T10:37:03;5.20;;;2.55;;
17796;SDS011;55596;53.554;9.916;2023-07-08T10:39:48;5.75;;;2.13;;
17796;SDS011;55596;53.554;9.916;2023-07-08T10:42:24;4.13;;;2.28;;
17796;SDS011;55596;53.554;9.916;2023-07-08T10:44:56;3.25;;;2.30;;
17796;SDS011;55596;53.554;9.916;2023-07-08T10:47:30;3.42;;;1.98;;
17796;SDS011;55596;53.554;9.916;2023-07-08T10:50:05;4.03;;;1.88;;
17796;SDS011;55596;53.554;9.916;2023-07-08T10:52:42;4.93;;;2.25;;
17796;SDS011;55596;53.554;9.916;2023-07-08T10:55:18;5.43;;;2.25;;
17796;SDS011;55596;53.554;9.916;2023-07-08T10:57:54;3.83;;;1.80;;
17796;SDS011;55596;53.554;9.916;2023-07-08T11:00:24;4.80;;;2.17;;
17796;SDS011;55596;53.554;9.916;2023-07-08T11:02:59;4.05;;;2.25;;
17796;SDS011;55596;53.554;9.916;2023-07-08T11:05:31;4.40;;;2.03;;
17796;SDS011;55596;53.554;9.916;2023-07-08T11:08:02;3.50;;;2.42;;
17796;SDS011;55596;53.554;9.916;2023-07-08T11:10:31;6.13;;;2.20;;
17796;SDS011;55596;53.554;9.916;2023-07-08T11:13:01;3.15;;;2.10;;
17796;SDS011;55596;53.554;9.916;2023-07-08T11:15:31;3.58;;;2.03;;
17796;SDS011;55596;53.554;9.916;2023-07-08T11:18:02;6.75;;;2.10;;
17796;SDS011;55596;53.554;9.916;2023-07-08T11:20:32;4.68;;;2.13;;
17796;SDS011;55596;53.554;9.916;2023-07-08T11:25:47;3.90;;;2.22;;
17796;SDS011;55596;53.554;9.916;2023-07-08T11:28:17;5.57;;;1.95;;
17796;SDS011;55596;53.554;9.916;2023-07-08T11:30:45;2.95;;;2.22;;
17796;SDS011;55596;53.554;9.916;2023-07-08T11:33:13;6.35;;;2.17;;
17796;SDS011;55596;53.554;9.916;2023-07-08T11:35:41;3.28;;;2.00;;
17796;SDS011;55596;53.554;9.916;2023-07-08T11:38:10;2.83;;;2.08;;
17796;SDS011;55596;53.554;9.916;2023-07-08T11:40:52;3.03;;;1.92;;
17796;SDS011;55596;53.554;9.916;2023-07-08T11:43:20;3.58;;;2.00;;
17796;SDS011;55596;53.554;9.916;2023-07-08T11:46:03;3.15;;;2.15;;
17796;SDS011;55596;53.554;9.916;2023-07-08T11:48:31;2.55;;;1.75;;
17796;SDS011;55596;53.554;9.916;2023-07-08T11:51:03;3.63;;;2.22;;
17796;SDS011;55596;53.554;9.916;2023-07-08T11:53:32;3.72;;;1.75;;
17796;SDS011;55596;53.554;9.916;2023-07-08T11:56:04;1.88;;;1.75;;
17796;SDS011;55596;53.554;9.916;2023-07-08T11:58:53;4.30;;;2.17;;
17796;SDS011;55596;53.554;9.916;2023-07-08T12:01:26;5.43;;;1.90;;
17796;SDS011;55596;53.554;9.916;2023-07-08T12:03:54;5.72;;;2.30;;
17796;SDS011;55596;53.554;9.916;2023-07-08T12:06:41;4.10;;;1.88;;
17796;SDS011;55596;53.554;9.916;2023-07-08T12:09:19;5.75;;;1.88;;
17796;SDS011;55596;53.554;9.916;2023-07-08T12:11:49;6.57;;;2.17;;
17796;SDS011;55596;53.554;9.916;2023-07-08T12:14:19;2.30;;;2.10;;
17796;SDS011;55596;53.554;9.916;2023-07-08T12:16:47;4.28;;;2.28;;
17796;SDS011;55596;53.554;9.916;2023-07-08T12:19:16;3.83;;;2.10;;
17796;SDS011;55596;53.554;9.916;2023-07-08T12:21:43;3.53;;;2.63;;
17796;SDS011;55596;53.554;9.916;2023-07-08T12:24:11;3.97;;;2.30;;
17796;SDS011;55596;53.554;9.916;2023-07-08T12:26:39;4.13;;;2.28;;
17796;SDS011;55596;53.554;9.916;2023-07-08T12:29:09;3.53;;;2.20;;
17796;SDS011;55596;53.554;9.916;2023-07-08T12:31:38;2.33;;;2.10;;
17796;SDS011;55596;53.554;9.916;2023-07-08T12:34:07;3.35;;;2.25;;
17796;SDS011;55596;53.554;9.916;2023-07-08T12:36:37;4.30;;;2.20;;
17796;SDS011;55596;53.554;9.916;2023-07-08T12:39:04;2.65;;;2.03;;
17796;SDS011;55596;53.554;9.916;2023-07-08T12:41:32;4.40;;;2.30;;
17796;SDS011;55596;53.554;9.916;2023-07-08T12:44:00;7.38;;;2.80;;
17796;SDS011;55596;53.554;9.916;2023-07-08T12:46:29;5.32;;;2.42;;
17796;SDS011;55596;53.554;9.916;2023-07-08T12:48:56;3.15;;;2.22;;
17796;SDS011;55596;53.554;9.916;2023-07-08T12:51:24;4.97;;;2.45;;
17796;SDS011;55596;53.554;9.916;2023-07-08T12:53:52;2.65;;;2.30;;
17796;SDS011;55596;53.554;9.916;2023-07-08T12:56:20;3.72;;;2.35;;
17796;SDS011;55596;53.554;9.916;2023-07-08T12:58:48;2.60;;;2.40;;
17796;SDS011;55596;53.554;9.916;2023-07-08T13:01:17;4.97;;;2.75;;
17796;SDS011;55596;53.554;9.916;2023-07-08T13:03:48;3.63;;;2.78;;
17796;SDS011;55596;53.554;9.916;2023-07-08T13:06:16;7.53;;;2.70;;
17796;SDS011;55596;53.554;9.916;2023-07-08T13:08:44;6.00;;;2.47;;
17796;SDS011;55596;53.554;9.916;2023-07-08T13:11:11;6.18;;;2.80;;
17796;SDS011;55596;53.554;9.916;2023-07-08T13:13:41;3.40;;;2.60;;
17796;SDS011;55596;53.554;9.916;2023-07-08T13:16:11;3.22;;;2.70;;
17796;SDS011;55596;53.554;9.916;2023-07-08T13:18:39;3.58;;;2.80;;
17796;SDS011;55596;53.554;9.916;2023-07-08T13:21:09;5.13;;;2.65;;
17796;SDS011;55596;53.554;9.916;2023-07-08T13:23:37;3.33;;;3.03;;
17796;SDS011;55596;53.554;9.916;2023-07-08T13:26:11;8.63;;;3.15;;
17796;SDS011;55596;53.554;9.916;2023-07-08T13:28:39;9.52;;;4.47;;
17796;SDS011;55596;53.554;9.916;2023-07-08T13:31:13;4.07;;;3.10;;
17796;SDS011;55596;53.554;9.916;2023-07-08T13:33:44;4.13;;;3.50;;
17796;SDS011;55596;53.554;9.916;2023-07-08T13:36:14;5.45;;;3.50;;
17796;SDS011;55596;53.554;9.916;2023-07-08T13:38:42;6.10;;;3.40;;
17796;SDS011;55596;53.554;9.916;2023-07-08T13:41:10;7.13;;;3.65;;
17796;SDS011;55596;53.554;9.916;2023-07-08T13:43:39;6.15;;;3.58;;
17796;SDS011;55596;53.554;9.916;2023-07-08T13:48:49;4.97;;;3.70;;
17796;SDS011;55596;53.554;9.916;2023-07-08T13:51:18;5.07;;;3.72;;
17796;SDS011;55596;53.554;9.916;2023-07-08T13:53:47;3.90;;;3.60;;
17796;SDS011;55596;53.554;9.916;2023-07-08T13:56:18;5.40;;;4.20;;
17796;SDS011;55596;53.554;9.916;2023-07-08T13:58:46;4.13;;;3.72;;
17796;SDS011;55596;53.554;9.916;2023-07-08T14:01:14;6.57;;;4.13;;
17796;SDS011;55596;53.554;9.916;2023-07-08T14:03:42;8.30;;;3.90;;
17796;SDS011;55596;53.554;9.916;2023-07-08T14:06:12;4.15;;;3.85;;
17796;SDS011;55596;53.554;9.916;2023-07-08T14:08:41;4.53;;;3.95;;
17796;SDS011;55596;53.554;9.916;2023-07-08T14:11:09;4.10;;;3.70;;
17796;SDS011;55596;53.554;9.916;2023-07-08T14:13:36;4.22;;;3.72;;
17796;SDS011;55596;53.554;9.916;2023-07-08T14:16:04;4.43;;;4.03;;
17796;SDS011;55596;53.554;9.916;2023-07-08T14:18:37;5.22;;;3.38;;
17796;SDS011;55596;53.554;9.916;2023-07-08T14:21:04;5.28;;;4.22;;
17796;SDS011;55596;53.554;9.916;2023-07-08T14:23:32;7.88;;;3.92;;
17796;SDS011;55596;53.554;9.916;2023-07-08T14:26:00;6.75;;;4.07;;
17796;SDS011;55596;53.554;9.916;2023-07-08T14:28:27;7.53;;;5.82;;
17796;SDS011;55596;53.554;9.916;2023-07-08T14:30:54;10.30;;;6.75;;
17796;SDS011;55596;53.554;9.916;2023-07-08T14:33:22;4.03;;;3.55;;
17796;SDS011;55596;53.554;9.916;2023-07-08T14:35:49;3.70;;;3.38;;
17796;SDS011;55596;53.554;9.916;2023-07-08T14:38:16;4.25;;;3.60;;
17796;SDS011;55596;53.554;9.916;2023-07-08T14:40:43;6.78;;;3.30;;
17796;SDS011;55596;53.554;9.916;2023-07-08T14:43:13;5.25;;;3.65;;
17796;SDS011;55596;53.554;9.916;2023-07-08T14:45:41;6.43;;;3.38;;
17796;SDS011;55596;53.554;9.916;2023-07-08T14:48:10;5.78;;;3.70;;
17796;SDS011;55596;53.554;9.916;2023-07-08T14:50:37;4.63;;;4.18;;
17796;SDS011;55596;53.554;9.916;2023-07-08T14:53:04;5.05;;;3.50;;
17796;SDS011;55596;53.554;9.916;2023-07-08T14:55:32;3.70;;;3.40;;
17796;SDS011;55596;53.554;9.916;2023-07-08T14:57:59;5.68;;;3.70;;
17796;SDS011;55596;53.554;9.916;2023-07-08T15:00:29;4.53;;;3.65;;
17796;SDS011;55596;53.554;9.916;2023-07-08T15:02:56;4.07;;;3.78;;
17796;SDS011;55596;53.554;9.916;2023-07-08T15:05:24;4.70;;;3.55;;